Time,TemperatureF,DewpointF,PressureIn,WindDirection,WindDirectionDegrees,WindSpeedMPH,WindSpeedGustMPH,Humidity,HourlyPrecipIn,Conditions,Clouds,dailyrainin,SoftwareType,DateUTC
2013-06-21 00:00:00,59.6,56.4,30.18,SW,219,0.0,0.0,89,0.00,,,0.00,Wunderground v.1.15,2013-06-21 04:00:00,
2013-06-21 00:10:00,59.1,55.9,30.19,SW,219,0.0,0.0,89,0.00,,,0.00,Wunderground v.1.15,2013-06-21 04:10:00,
2013-06-21 00:15:00,59.0,55.8,30.19,SW,219,0.0,0.0,89,0.00,,,0.00,Wunderground v.1.15,2013-06-21 04:15:00,
2013-06-21 00:20:00,59.0,55.8,30.19,SW,219,0.0,0.0,89,0.00,,,0.00,Wunderground v.1.15,2013-06-21 04:20:00,
2013-06-21 00:25:00,58.9,56.0,30.19,SW,219,0.0,0.0,90,0.00,,,0.00,Wunderground v.1.15,2013-06-21 04:25:00,
2013-06-21 00:30:00,58.7,55.8,30.19,SW,219,0.0,0.0,90,0.00,,,0.00,Wunderground v.1.15,2013-06-21 04:30:00,
2013-06-21 00:40:00,58.4,55.8,30.19,SW,219,0.0,0.0,91,0.00,,,0.00,Wunderground v.1.15,2013-06-21 04:40:00,
2013-06-21 00:45:00,58.1,55.8,30.19,SW,219,0.0,0.0,92,0.00,,,0.00,Wunderground v.1.15,2013-06-21 04:45:00,
2013-06-21 00:55:00,57.7,55.4,30.19,SW,219,0.0,0.0,92,0.00,,,0.00,Wunderground v.1.15,2013-06-21 04:55:00,
2013-06-21 01:00:00,57.5,55.2,30.19,SW,219,0.0,0.0,92,0.00,,,0.00,Wunderground v.1.15,2013-06-21 05:00:00,
2013-06-21 01:10:00,57.2,55.2,30.19,SW,219,0.0,0.0,93,0.00,,,0.00,Wunderground v.1.15,2013-06-21 05:10:00,
2013-06-21 01:20:00,57.0,55.3,30.19,SW,219,0.0,0.0,94,0.00,,,0.00,Wunderground v.1.15,2013-06-21 05:20:00,
2013-06-21 01:25:00,56.9,55.2,30.18,SW,219,0.0,0.0,94,0.00,,,0.00,Wunderground v.1.15,2013-06-21 05:25:00,
2013-06-21 01:30:00,56.8,55.1,30.18,SW,219,0.0,0.0,94,0.00,,,0.00,Wunderground v.1.15,2013-06-21 05:30:00,
2013-06-21 01:40:00,56.5,54.8,30.18,SW,219,0.0,0.0,94,0.00,,,0.00,Wunderground v.1.15,2013-06-21 05:40:00,
2013-06-21 01:45:00,56.5,55.1,30.17,SW,219,0.0,0.0,95,0.00,,,0.00,Wunderground v.1.15,2013-06-21 05:45:00,
2013-06-21 01:50:00,56.4,55.0,30.18,SW,219,0.0,0.0,95,0.00,,,0.00,Wunderground v.1.15,2013-06-21 05:50:00,
2013-06-21 01:55:00,56.3,54.9,30.18,SW,219,0.0,0.0,95,0.00,,,0.00,Wunderground v.1.15,2013-06-21 05:55:00,
2013-06-21 02:10:00,56.1,54.7,30.18,SW,219,0.0,0.0,95,0.00,,,0.00,Wunderground v.1.15,2013-06-21 06:10:00,
2013-06-21 02:20:00,55.9,54.8,30.18,SW,219,0.0,0.0,96,0.00,,,0.00,Wunderground v.1.15,2013-06-21 06:20:00,
2013-06-21 02:25:00,55.9,54.8,30.18,SW,219,0.0,0.0,96,0.00,,,0.00,Wunderground v.1.15,2013-06-21 06:25:00,
2013-06-21 02:30:00,55.8,54.7,30.18,SW,219,0.0,0.0,96,0.00,,,0.00,Wunderground v.1.15,2013-06-21 06:30:00,
2013-06-21 02:35:00,55.8,54.7,30.18,SW,219,0.0,0.0,96,0.00,,,0.00,Wunderground v.1.15,2013-06-21 06:35:00,
2013-06-21 02:45:00,55.7,54.6,30.18,SW,219,0.0,0.0,96,0.00,,,0.00,Wunderground v.1.15,2013-06-21 06:45:00,
2013-06-21 02:50:00,55.6,54.8,30.18,SW,219,0.0,0.0,97,0.00,,,0.00,Wunderground v.1.15,2013-06-21 06:50:00,
2013-06-21 02:55:00,55.5,54.7,30.18,SW,219,0.0,0.0,97,0.00,,,0.00,Wunderground v.1.15,2013-06-21 06:55:00,
2013-06-21 03:00:00,55.4,54.6,30.18,SW,219,0.0,0.0,97,0.00,,,0.00,Wunderground v.1.15,2013-06-21 07:00:00,
2013-06-21 03:10:00,55.3,54.5,30.18,SW,219,0.0,0.0,97,0.00,,,0.00,Wunderground v.1.15,2013-06-21 07:10:00,
2013-06-21 03:15:00,55.1,54.3,30.17,SW,219,0.0,0.0,97,0.00,,,0.00,Wunderground v.1.15,2013-06-21 07:15:00,
2013-06-21 03:20:00,55.1,54.3,30.17,SW,219,0.0,0.0,97,0.00,,,0.00,Wunderground v.1.15,2013-06-21 07:20:00,
2013-06-21 03:30:00,55.0,54.2,30.17,SW,219,0.0,0.0,97,0.00,,,0.00,Wunderground v.1.15,2013-06-21 07:30:00,
2013-06-21 03:35:00,54.9,54.1,30.18,SW,219,0.0,0.0,97,0.00,,,0.00,Wunderground v.1.15,2013-06-21 07:35:00,
2013-06-21 03:40:00,54.8,54.0,30.18,SW,219,0.0,0.0,97,0.00,,,0.00,Wunderground v.1.15,2013-06-21 07:40:00,
2013-06-21 03:50:00,54.9,54.3,30.18,SW,219,0.0,0.0,98,0.00,,,0.00,Wunderground v.1.15,2013-06-21 07:50:00,
2013-06-21 03:55:00,55.0,54.4,30.18,SW,219,0.0,0.0,98,0.00,,,0.00,Wunderground v.1.15,2013-06-21 07:55:00,
2013-06-21 04:00:00,54.9,54.3,30.18,SW,219,0.0,0.0,98,0.00,,,0.00,Wunderground v.1.15,2013-06-21 08:00:00,
2013-06-21 04:10:00,54.8,54.2,30.18,SW,219,0.0,0.0,98,0.00,,,0.00,Wunderground v.1.15,2013-06-21 08:10:00,
2013-06-21 04:15:00,54.8,54.2,30.18,SW,219,0.0,0.0,98,0.00,,,0.00,Wunderground v.1.15,2013-06-21 08:15:00,
2013-06-21 04:20:00,54.7,54.1,30.18,SW,219,0.0,0.0,98,0.00,,,0.00,Wunderground v.1.15,2013-06-21 08:20:00,
2013-06-21 04:30:00,54.5,53.9,30.17,SW,219,0.0,0.0,98,0.00,,,0.00,Wunderground v.1.15,2013-06-21 08:30:00,
2013-06-21 04:35:00,54.4,53.8,30.18,SW,219,0.0,0.0,98,0.00,,,0.00,Wunderground v.1.15,2013-06-21 08:35:00,
2013-06-21 04:40:00,54.4,53.8,30.18,SW,219,0.0,0.0,98,0.00,,,0.00,Wunderground v.1.15,2013-06-21 08:40:00,
2013-06-21 04:50:00,54.2,53.6,30.18,SW,219,0.0,0.0,98,0.00,,,0.00,Wunderground v.1.15,2013-06-21 08:50:00,
2013-06-21 04:55:00,54.1,53.5,30.18,SW,219,0.0,0.0,98,0.00,,,0.00,Wunderground v.1.15,2013-06-21 08:55:00,
2013-06-21 05:00:00,54.0,53.4,30.18,SW,219,0.0,0.0,98,0.00,,,0.00,Wunderground v.1.15,2013-06-21 09:00:00,
2013-06-21 05:10:00,53.8,53.2,30.18,SW,219,0.0,0.0,98,0.00,,,0.00,Wunderground v.1.15,2013-06-21 09:10:00,
2013-06-21 05:15:00,53.8,53.2,30.18,SW,219,0.0,0.0,98,0.00,,,0.00,Wunderground v.1.15,2013-06-21 09:15:00,
2013-06-21 05:20:00,53.7,53.4,30.18,SW,219,0.0,0.0,99,0.00,,,0.00,Wunderground v.1.15,2013-06-21 09:20:00,
2013-06-21 05:25:00,53.7,53.4,30.18,SW,219,0.0,0.0,99,0.00,,,0.00,Wunderground v.1.15,2013-06-21 09:25:00,
2013-06-21 05:35:00,53.5,52.9,30.19,SW,219,0.0,0.0,98,0.00,,,0.00,Wunderground v.1.15,2013-06-21 09:35:00,
2013-06-21 05:40:00,53.6,53.3,30.19,SW,219,0.0,0.0,99,0.00,,,0.00,Wunderground v.1.15,2013-06-21 09:40:00,
2013-06-21 05:45:00,53.7,53.4,30.19,SW,219,0.0,0.0,99,0.00,,,0.00,Wunderground v.1.15,2013-06-21 09:45:00,
2013-06-21 05:55:00,53.8,53.5,30.19,SW,219,0.0,0.0,99,0.00,,,0.00,Wunderground v.1.15,2013-06-21 09:55:00,
2013-06-21 06:00:00,53.8,53.5,30.19,SW,219,0.0,0.0,99,0.00,,,0.00,Wunderground v.1.15,2013-06-21 10:00:00,
2013-06-21 06:10:00,54.0,53.7,30.19,SW,219,0.0,0.0,99,0.00,,,0.00,Wunderground v.1.15,2013-06-21 10:10:00,
2013-06-21 06:20:00,54.2,53.9,30.19,SW,219,0.0,0.0,99,0.00,,,0.00,Wunderground v.1.15,2013-06-21 10:20:00,
2013-06-21 06:25:00,54.3,54.0,30.19,SW,219,0.0,0.0,99,0.00,,,0.00,Wunderground v.1.15,2013-06-21 10:25:00,
2013-06-21 06:30:00,54.5,54.2,30.19,SW,219,0.0,0.0,99,0.00,,,0.00,Wunderground v.1.15,2013-06-21 10:30:00,
2013-06-21 06:40:00,54.9,54.6,30.20,SW,219,0.0,0.0,99,0.00,,,0.00,Wunderground v.1.15,2013-06-21 10:40:00,
2013-06-21 06:45:00,55.1,54.8,30.20,SW,219,0.0,0.0,99,0.00,,,0.00,Wunderground v.1.15,2013-06-21 10:45:00,
2013-06-21 06:50:00,55.4,55.4,30.20,SW,219,0.0,0.0,100,0.00,,,0.00,Wunderground v.1.15,2013-06-21 10:50:00,
2013-06-21 07:00:00,56.3,56.3,30.20,SW,219,0.0,0.0,100,0.00,,,0.00,Wunderground v.1.15,2013-06-21 11:00:00,
2013-06-21 07:10:00,57.2,57.2,30.20,SW,219,0.0,0.0,100,0.00,,,0.00,Wunderground v.1.15,2013-06-21 11:10:00,
2013-06-21 07:15:00,57.8,57.8,30.20,SW,219,0.0,0.0,100,0.00,,,0.00,Wunderground v.1.15,2013-06-21 11:15:00,
2013-06-21 07:25:00,59.2,59.2,30.19,SW,219,0.0,0.0,100,0.00,,,0.00,Wunderground v.1.15,2013-06-21 11:25:00,
2013-06-21 07:30:00,59.5,59.2,30.20,SW,218,0.0,0.0,99,0.00,,,0.00,Wunderground v.1.15,2013-06-21 11:30:00,
2013-06-21 07:35:00,60.0,58.9,30.20,SW,227,0.0,0.0,96,0.00,,,0.00,Wunderground v.1.15,2013-06-21 11:35:00,
2013-06-21 07:45:00,62.0,58.7,30.19,SSW,213,0.0,2.0,89,0.00,,,0.00,Wunderground v.1.15,2013-06-21 11:45:00,
2013-06-21 07:50:00,62.8,58.2,30.19,SW,215,1.0,1.0,85,0.00,,,0.00,Wunderground v.1.15,2013-06-21 11:50:00,
2013-06-21 07:55:00,63.5,58.9,30.20,SSW,209,1.0,1.0,85,0.00,,,0.00,Wunderground v.1.15,2013-06-21 11:55:00,
2013-06-21 08:10:00,64.9,58.6,30.19,SW,225,1.0,1.0,80,0.00,,,0.00,Wunderground v.1.15,2013-06-21 12:10:00,
2013-06-21 08:15:00,65.2,58.9,30.19,SW,221,1.0,2.0,80,0.00,,,0.00,Wunderground v.1.15,2013-06-21 12:15:00,
2013-06-21 08:25:00,65.7,59.0,30.19,SSW,211,1.0,2.0,79,0.00,,,0.00,Wunderground v.1.15,2013-06-21 12:25:00,
2013-06-21 08:30:00,66.1,59.4,30.19,SW,215,1.0,1.0,79,0.00,,,0.00,Wunderground v.1.15,2013-06-21 12:30:00,
2013-06-21 08:35:00,66.5,59.4,30.19,SW,219,1.0,4.0,78,0.00,,,0.00,Wunderground v.1.15,2013-06-21 12:35:00,
2013-06-21 08:45:00,67.1,60.0,30.19,WNW,303,1.0,1.0,78,0.00,,,0.00,Wunderground v.1.15,2013-06-21 12:45:00,
2013-06-21 08:50:00,67.5,60.0,30.19,WSW,241,1.0,1.0,77,0.00,,,0.00,Wunderground v.1.15,2013-06-21 12:50:00,
2013-06-21 08:55:00,68.0,60.5,30.19,West,267,0.0,1.0,77,0.00,,,0.00,Wunderground v.1.15,2013-06-21 12:55:00,
2013-06-21 09:10:00,68.8,61.3,30.19,West,265,1.0,1.0,77,0.00,,,0.00,Wunderground v.1.15,2013-06-21 13:10:00,
2013-06-21 09:15:00,69.2,61.3,30.19,SSW,198,0.0,1.0,76,0.00,,,0.00,Wunderground v.1.15,2013-06-21 13:15:00,
2013-06-21 09:25:00,70.1,62.2,30.19,NW,313,1.0,1.0,76,0.00,,,0.00,Wunderground v.1.15,2013-06-21 13:25:00,
2013-06-21 09:30:00,70.4,62.1,30.19,WSW,256,1.0,2.0,75,0.00,,,0.00,Wunderground v.1.15,2013-06-21 13:30:00,
2013-06-21 09:35:00,70.2,61.9,30.19,West,275,1.0,2.0,75,0.00,,,0.00,Wunderground v.1.15,2013-06-21 13:35:00,
2013-06-21 09:45:00,70.5,62.6,30.19,WSW,240,1.0,3.0,76,0.00,,,0.00,Wunderground v.1.15,2013-06-21 13:45:00,
2013-06-21 09:50:00,70.4,62.5,30.19,West,273,2.0,2.0,76,0.00,,,0.00,Wunderground v.1.15,2013-06-21 13:50:00,
2013-06-21 09:55:00,71.0,63.1,30.19,SSW,199,2.0,2.0,76,0.00,,,0.00,Wunderground v.1.15,2013-06-21 13:55:00,
2013-06-21 10:00:00,71.3,63.0,30.19,WSW,248,2.0,2.0,75,0.00,,,0.00,Wunderground v.1.15,2013-06-21 14:00:00,
2013-06-21 10:10:00,71.8,63.8,30.18,West,277,1.0,1.0,76,0.00,,,0.00,Wunderground v.1.15,2013-06-21 14:10:00,
2013-06-21 10:15:00,72.0,63.3,30.19,SSW,213,2.0,2.0,74,0.00,,,0.00,Wunderground v.1.15,2013-06-21 14:15:00,
2013-06-21 10:20:00,71.8,63.1,30.18,SW,217,2.0,2.0,74,0.00,,,0.00,Wunderground v.1.15,2013-06-21 14:20:00,
2013-06-21 10:25:00,71.7,63.7,30.18,WNW,288,2.0,2.0,76,0.00,,,0.00,Wunderground v.1.15,2013-06-21 14:25:00,
2013-06-21 10:35:00,72.8,65.2,30.18,SW,234,2.0,4.0,77,0.00,,,0.00,Wunderground v.1.15,2013-06-21 14:35:00,
2013-06-21 10:40:00,73.5,64.7,30.18,SW,220,1.0,3.0,74,0.00,,,0.00,Wunderground v.1.15,2013-06-21 14:40:00,
2013-06-21 10:50:00,74.1,64.9,30.19,SSW,202,2.0,2.0,73,0.00,,,0.00,Wunderground v.1.15,2013-06-21 14:50:00,
2013-06-21 10:55:00,74.0,65.2,30.19,WNW,300,2.0,2.0,74,0.00,,,0.00,Wunderground v.1.15,2013-06-21 14:55:00,
2013-06-21 11:00:00,74.4,65.2,30.19,West,264,2.0,2.0,73,0.00,,,0.00,Wunderground v.1.15,2013-06-21 15:00:00,
2013-06-21 11:10:00,74.8,65.6,30.19,SSW,209,2.0,5.0,73,0.00,,,0.00,Wunderground v.1.15,2013-06-21 15:10:00,
2013-06-21 11:15:00,74.9,65.7,30.19,WNW,291,2.0,5.0,73,0.00,,,0.00,Wunderground v.1.15,2013-06-21 15:15:00,
2013-06-21 11:20:00,75.5,66.2,30.19,WNW,284,1.0,3.0,73,0.00,,,0.00,Wunderground v.1.15,2013-06-21 15:20:00,
2013-06-21 11:30:00,75.9,66.2,30.19,WNW,292,2.0,4.0,72,0.00,,,0.00,Wunderground v.1.15,2013-06-21 15:30:00,
2013-06-21 11:35:00,76.2,67.3,30.19,WSW,254,1.0,4.0,74,0.00,,,0.00,Wunderground v.1.15,2013-06-21 15:35:00,
2013-06-21 11:40:00,76.5,66.8,30.19,West,267,1.0,1.0,72,0.00,,,0.00,Wunderground v.1.15,2013-06-21 15:40:00,
2013-06-21 11:50:00,77.1,67.8,30.19,SW,218,1.0,1.0,73,0.00,,,0.00,Wunderground v.1.15,2013-06-21 15:50:00,
2013-06-21 11:55:00,77.1,67.0,30.18,WSW,248,2.0,2.0,71,0.00,,,0.00,Wunderground v.1.15,2013-06-21 15:55:00,
2013-06-21 12:00:00,77.1,66.6,30.18,SW,220,3.0,4.0,70,0.00,,,0.00,Wunderground v.1.15,2013-06-21 16:00:00,
2013-06-21 12:10:00,77.7,67.5,30.18,SW,214,2.0,2.0,71,0.00,,,0.00,Wunderground v.1.15,2013-06-21 16:10:00,
2013-06-21 12:15:00,78.0,67.4,30.18,SW,221,1.0,2.0,70,0.00,,,0.00,Wunderground v.1.15,2013-06-21 16:15:00,
2013-06-21 12:25:00,78.2,67.6,30.18,WNW,284,3.0,4.0,70,0.00,,,0.00,Wunderground v.1.15,2013-06-21 16:25:00,
2013-06-21 12:30:00,78.7,68.1,30.18,SSW,209,2.0,2.0,70,0.00,,,0.00,Wunderground v.1.15,2013-06-21 16:30:00,
2013-06-21 12:40:00,78.7,68.1,30.18,West,268,1.0,1.0,70,0.00,,,0.00,Wunderground v.1.15,2013-06-21 16:40:00,
2013-06-21 12:50:00,79.6,68.5,30.18,West,268,1.0,2.0,69,0.00,,,0.00,Wunderground v.1.15,2013-06-21 16:50:00,
2013-06-21 12:55:00,79.7,68.2,30.18,WSW,258,2.0,3.0,68,0.00,,,0.00,Wunderground v.1.15,2013-06-21 16:55:00,
2013-06-21 13:00:00,79.6,69.0,30.18,West,276,2.0,2.0,70,0.00,,,0.00,Wunderground v.1.15,2013-06-21 17:00:00,
2013-06-21 13:10:00,80.5,69.8,30.18,SSW,205,2.0,4.0,70,0.00,,,0.00,Wunderground v.1.15,2013-06-21 17:10:00,
2013-06-21 13:15:00,80.6,69.1,30.17,West,269,1.0,4.0,68,0.00,,,0.00,Wunderground v.1.15,2013-06-21 17:15:00,
2013-06-21 13:25:00,79.6,68.5,30.17,West,277,2.0,4.0,69,0.00,,,0.00,Wunderground v.1.15,2013-06-21 17:25:00,
2013-06-21 13:30:00,80.0,69.3,30.17,WNW,282,2.0,2.0,70,0.00,,,0.00,Wunderground v.1.15,2013-06-21 17:30:00,
2013-06-21 13:50:00,81.3,69.3,30.16,WSW,246,1.0,1.0,67,0.00,,,0.00,Wunderground v.1.15,2013-06-21 17:50:00,
2013-06-21 13:55:00,81.4,68.9,30.16,SW,219,1.0,2.0,66,0.00,,,0.00,Wunderground v.1.15,2013-06-21 17:55:00,
2013-06-21 14:00:00,81.1,68.7,30.16,SSW,208,2.0,4.0,66,0.00,,,0.00,Wunderground v.1.15,2013-06-21 18:00:00,
2013-06-21 14:10:00,81.4,68.9,30.16,SW,227,3.0,3.0,66,0.00,,,0.00,Wunderground v.1.15,2013-06-21 18:10:00,
2013-06-21 14:20:00,81.3,68.9,30.16,SSW,213,3.0,3.0,66,0.00,,,0.00,Wunderground v.1.15,2013-06-21 18:20:00,
2013-06-21 14:24:00,81.0,69.0,30.15,SSW,209,2.0,3.0,67,0.00,,,0.00,Wunderground v.1.15,2013-06-21 18:24:00,
2013-06-21 14:30:00,80.8,68.8,30.15,WSW,240,1.0,1.0,67,0.00,,,0.00,Wunderground v.1.15,2013-06-21 18:30:00,
2013-06-21 14:35:00,81.1,68.7,30.15,SW,219,2.0,7.0,66,0.00,,,0.00,Wunderground v.1.15,2013-06-21 18:35:00,
2013-06-21 14:45:00,81.6,70.0,30.15,West,270,2.0,3.0,68,0.00,,,0.00,Wunderground v.1.15,2013-06-21 18:45:00,
2013-06-21 14:50:00,81.8,68.9,30.15,West,279,2.0,2.0,65,0.00,,,0.00,Wunderground v.1.15,2013-06-21 18:50:00,
2013-06-21 14:55:00,82.1,68.7,30.14,WSW,240,2.0,2.0,64,0.00,,,0.00,Wunderground v.1.15,2013-06-21 18:55:00,
2013-06-21 15:00:00,82.4,69.4,30.15,West,269,1.0,4.0,65,0.00,,,0.00,Wunderground v.1.15,2013-06-21 19:00:00,
2013-06-21 15:10:00,81.8,68.0,30.15,South,182,2.0,2.0,63,0.00,,,0.00,Wunderground v.1.15,2013-06-21 19:10:00,
2013-06-21 15:20:00,81.9,68.1,30.15,SSW,202,1.0,2.0,63,0.00,,,0.00,Wunderground v.1.15,2013-06-21 19:20:00,
2013-06-21 15:25:00,82.1,68.3,30.15,WSW,253,2.0,2.0,63,0.00,,,0.00,Wunderground v.1.15,2013-06-21 19:25:00,
2013-06-21 15:30:00,82.4,68.1,30.15,SW,214,1.0,1.0,62,0.00,,,0.00,Wunderground v.1.15,2013-06-21 19:30:00,
2013-06-21 15:40:00,81.9,67.6,30.15,WNW,285,2.0,3.0,62,0.00,,,0.00,Wunderground v.1.15,2013-06-21 19:40:00,
2013-06-21 15:45:00,82.0,67.7,30.15,SSW,212,2.0,4.0,62,0.00,,,0.00,Wunderground v.1.15,2013-06-21 19:45:00,
2013-06-21 15:55:00,82.3,68.0,30.14,SSW,209,2.0,2.0,62,0.00,,,0.00,Wunderground v.1.15,2013-06-21 19:55:00,
2013-06-21 16:00:00,82.1,68.3,30.14,SSW,207,1.0,2.0,63,0.00,,,0.00,Wunderground v.1.15,2013-06-21 20:00:00,
2013-06-21 16:09:00,82.3,68.4,30.14,NW,304,1.0,1.0,63,0.00,,,0.00,Wunderground v.1.15,2013-06-21 20:09:00,
2013-06-21 16:15:00,82.7,67.4,30.14,SW,217,1.0,4.0,60,0.00,,,0.00,Wunderground v.1.15,2013-06-21 20:15:00,
2013-06-21 16:20:00,82.9,68.1,30.14,SW,215,1.0,1.0,61,0.00,,,0.00,Wunderground v.1.15,2013-06-21 20:20:00,
2013-06-21 16:25:00,82.8,67.5,30.14,South,173,1.0,1.0,60,0.00,,,0.00,Wunderground v.1.15,2013-06-21 20:25:00,
2013-06-21 16:35:00,82.1,68.3,30.14,SSW,205,1.0,1.0,63,0.00,,,0.00,Wunderground v.1.15,2013-06-21 20:35:00,
2013-06-21 16:40:00,81.5,68.1,30.14,SW,221,1.0,1.0,64,0.00,,,0.00,Wunderground v.1.15,2013-06-21 20:40:00,
2013-06-21 16:50:00,80.8,67.0,30.14,SW,222,2.0,4.0,63,0.00,,,0.00,Wunderground v.1.15,2013-06-21 20:50:00,
2013-06-21 16:55:00,80.8,67.0,30.14,West,261,1.0,4.0,63,0.00,,,0.00,Wunderground v.1.15,2013-06-21 20:55:00,
2013-06-21 17:10:00,80.1,66.8,30.14,SW,225,2.0,2.0,64,0.00,,,0.00,Wunderground v.1.15,2013-06-21 21:10:00,
2013-06-21 17:20:00,79.8,67.0,30.13,WSW,246,1.0,2.0,65,0.00,,,0.00,Wunderground v.1.15,2013-06-21 21:20:00,
2013-06-21 17:25:00,79.7,67.3,30.13,WSW,244,1.0,2.0,66,0.00,,,0.00,Wunderground v.1.15,2013-06-21 21:25:00,
2013-06-21 17:30:00,79.5,67.1,30.13,SW,233,1.0,2.0,66,0.00,,,0.00,Wunderground v.1.15,2013-06-21 21:30:00,
2013-06-21 17:40:00,79.9,68.0,30.13,West,279,0.0,0.0,67,0.00,,,0.00,Wunderground v.1.15,2013-06-21 21:40:00,
2013-06-21 17:45:00,80.3,67.5,30.13,SSW,213,1.0,1.0,65,0.00,,,0.00,Wunderground v.1.15,2013-06-21 21:45:00,
2013-06-21 17:55:00,81.0,67.2,30.13,SW,223,1.0,3.0,63,0.00,,,0.00,Wunderground v.1.15,2013-06-21 21:55:00,
2013-06-21 18:00:00,80.9,67.1,30.13,SW,219,1.0,1.0,63,0.00,,,0.00,Wunderground v.1.15,2013-06-21 22:00:00,
2013-06-21 18:10:00,80.5,67.2,30.13,SW,219,1.0,2.0,64,0.00,,,0.00,Wunderground v.1.15,2013-06-21 22:10:00,
2013-06-21 18:15:00,80.3,67.0,30.13,South,190,1.0,2.0,64,0.00,,,0.00,Wunderground v.1.15,2013-06-21 22:15:00,
2013-06-21 18:25:00,79.8,67.0,30.14,South,184,1.0,2.0,65,0.00,,,0.00,Wunderground v.1.15,2013-06-21 22:25:00,
2013-06-21 18:30:00,79.5,67.1,30.14,SW,227,1.0,1.0,66,0.00,,,0.00,Wunderground v.1.15,2013-06-21 22:30:00,
2013-06-21 18:35:00,79.3,66.5,30.14,SW,235,1.0,1.0,65,0.00,,,0.00,Wunderground v.1.15,2013-06-21 22:35:00,
2013-06-21 18:45:00,78.7,66.4,30.14,SSW,209,1.0,1.0,66,0.00,,,0.00,Wunderground v.1.15,2013-06-21 22:45:00,
2013-06-21 18:50:00,78.5,66.2,30.14,SSW,209,1.0,1.0,66,0.00,,,0.00,Wunderground v.1.15,2013-06-21 22:50:00,
2013-06-21 18:55:00,78.1,66.2,30.14,WNW,288,0.0,1.0,67,0.00,,,0.00,Wunderground v.1.15,2013-06-21 22:55:00,
2013-06-21 19:10:00,77.3,65.5,30.15,SW,219,0.0,0.0,67,0.00,,,0.00,Wunderground v.1.15,2013-06-21 23:10:00,
2013-06-21 19:15:00,77.1,65.7,30.15,SW,218,0.0,0.0,68,0.00,,,0.00,Wunderground v.1.15,2013-06-21 23:15:00,
2013-06-21 19:25:00,76.7,65.3,30.15,SSW,205,0.0,0.0,68,0.00,,,0.00,Wunderground v.1.15,2013-06-21 23:25:00,
2013-06-21 19:30:00,76.4,65.1,30.15,SSW,205,0.0,0.0,68,0.00,,,0.00,Wunderground v.1.15,2013-06-21 23:30:00,
2013-06-21 19:35:00,76.0,64.7,30.15,West,261,0.0,1.0,68,0.00,,,0.00,Wunderground v.1.15,2013-06-21 23:35:00,
2013-06-21 19:45:00,75.4,64.1,30.15,SW,221,1.0,2.0,68,0.00,,,0.00,Wunderground v.1.15,2013-06-21 23:45:00,
2013-06-21 19:50:00,75.2,64.3,30.15,SW,220,1.0,1.0,69,0.00,,,0.00,Wunderground v.1.15,2013-06-21 23:50:00,
2013-06-21 19:55:00,75.0,64.1,30.15,SW,218,1.0,1.0,69,0.00,,,0.00,Wunderground v.1.15,2013-06-21 23:55:00,
2013-06-21 20:00:00,74.7,64.3,30.15,WSW,243,1.0,3.0,70,0.00,,,0.00,Wunderground v.1.15,2013-06-22 00:00:00,
2013-06-21 20:10:00,74.1,64.1,30.15,SW,227,1.0,4.0,71,0.00,,,0.00,Wunderground v.1.15,2013-06-22 00:10:00,
2013-06-21 20:15:00,73.9,63.9,30.15,SSW,205,0.0,4.0,71,0.00,,,0.00,Wunderground v.1.15,2013-06-22 00:15:00,
2013-06-21 20:25:00,73.4,63.4,30.15,SW,221,0.0,1.0,71,0.00,,,0.00,Wunderground v.1.15,2013-06-22 00:25:00,
2013-06-21 20:35:00,72.9,63.3,30.15,WSW,238,1.0,5.0,72,0.00,,,0.00,Wunderground v.1.15,2013-06-22 00:35:00,
2013-06-21 20:40:00,72.6,63.4,30.15,SW,233,0.0,0.0,73,0.00,,,0.00,Wunderground v.1.15,2013-06-22 00:40:00,
2013-06-21 20:45:00,72.3,63.2,30.15,SW,229,0.0,0.0,73,0.00,,,0.00,Wunderground v.1.15,2013-06-22 00:45:00,
2013-06-21 20:55:00,71.8,63.1,30.15,SW,229,0.0,0.0,74,0.00,,,0.00,Wunderground v.1.15,2013-06-22 00:55:00,
2013-06-21 21:00:00,71.5,62.8,30.15,SW,229,0.0,0.0,74,0.00,,,0.00,Wunderground v.1.15,2013-06-22 01:00:00,
2013-06-21 21:10:00,70.9,62.6,30.15,SW,229,0.0,0.0,75,0.00,,,0.00,Wunderground v.1.15,2013-06-22 01:10:00,
2013-06-21 21:15:00,70.6,62.3,30.15,SW,227,0.0,0.0,75,0.00,,,0.00,Wunderground v.1.15,2013-06-22 01:15:00,
2013-06-21 21:20:00,70.4,62.5,30.15,SW,226,0.0,0.0,76,0.00,,,0.00,Wunderground v.1.15,2013-06-22 01:20:00,
2013-06-21 21:25:00,70.2,62.6,30.16,SW,227,0.0,0.0,77,0.00,,,0.00,Wunderground v.1.15,2013-06-22 01:25:00,
2013-06-21 21:35:00,69.7,62.5,30.16,SW,227,0.0,0.0,78,0.00,,,0.00,Wunderground v.1.15,2013-06-22 01:35:00,
2013-06-21 21:40:00,69.3,62.1,30.16,SW,226,0.0,0.0,78,0.00,,,0.00,Wunderground v.1.15,2013-06-22 01:40:00,
2013-06-21 21:45:00,68.8,62.0,30.16,SW,226,0.0,0.0,79,0.00,,,0.00,Wunderground v.1.15,2013-06-22 01:45:00,
2013-06-21 21:50:00,68.5,62.1,30.16,SW,227,0.0,0.0,80,0.00,,,0.00,Wunderground v.1.15,2013-06-22 01:50:00,
2013-06-21 22:00:00,67.9,61.9,30.16,SW,227,0.0,0.0,81,0.00,,,0.00,Wunderground v.1.15,2013-06-22 02:00:00,
2013-06-21 22:10:00,67.4,61.7,30.16,SW,227,0.0,0.0,82,0.00,,,0.00,Wunderground v.1.15,2013-06-22 02:10:00,
2013-06-21 22:20:00,66.9,61.6,30.16,SW,226,0.0,0.0,83,0.00,,,0.00,Wunderground v.1.15,2013-06-22 02:20:00,
2013-06-21 22:25:00,66.7,61.4,30.16,SW,227,0.0,0.0,83,0.00,,,0.00,Wunderground v.1.15,2013-06-22 02:25:00,
2013-06-21 22:30:00,66.4,61.1,30.16,SW,226,0.0,0.0,83,0.00,,,0.00,Wunderground v.1.15,2013-06-22 02:30:00,
2013-06-21 22:40:00,66.2,61.6,30.16,SW,227,0.0,0.0,85,0.00,,,0.00,Wunderground v.1.15,2013-06-22 02:40:00,
2013-06-21 22:45:00,66.0,61.0,30.16,SW,227,0.0,0.0,84,0.00,,,0.00,Wunderground v.1.15,2013-06-22 02:45:00,
2013-06-21 22:50:00,65.8,60.8,30.16,SW,227,0.0,0.0,84,0.00,,,0.00,Wunderground v.1.15,2013-06-22 02:50:00,
2013-06-21 23:00:00,65.4,60.4,30.16,SW,227,0.0,0.0,84,0.00,,,0.00,Wunderground v.1.15,2013-06-22 03:00:00,
2013-06-21 23:10:00,65.0,60.4,30.17,SW,226,0.0,0.0,85,0.00,,,0.00,Wunderground v.1.15,2013-06-22 03:10:00,
2013-06-21 23:15:00,64.9,60.6,30.16,SW,227,0.0,0.0,86,0.00,,,0.00,Wunderground v.1.15,2013-06-22 03:15:00,
2013-06-21 23:25:00,64.6,60.3,30.16,SW,227,0.0,0.0,86,0.00,,,0.00,Wunderground v.1.15,2013-06-22 03:25:00,
2013-06-21 23:30:00,64.3,60.3,30.16,SW,227,0.0,0.0,87,0.00,,,0.00,Wunderground v.1.15,2013-06-22 03:30:00,
2013-06-21 23:35:00,64.1,60.2,30.16,SW,226,0.0,0.0,87,0.00,,,0.00,Wunderground v.1.15,2013-06-22 03:35:00,
2013-06-21 23:40:00,63.9,60.3,30.16,SW,227,0.0,0.0,88,0.00,,,0.00,Wunderground v.1.15,2013-06-22 03:40:00,
2013-06-21 23:50:00,63.6,60.0,30.16,SW,227,0.0,0.0,88,0.00,,,0.00,Wunderground v.1.15,2013-06-22 03:50:00,
2013-06-21 23:55:00,63.4,59.8,30.16,SW,227,0.0,0.0,88,0.00,,,0.00,Wunderground v.1.15,2013-06-22 03:55:00,